createdAt,value
2019-01-23T00:03:51.726Z,19.70
2019-01-23T00:06:19.502Z,19.52
2019-01-23T00:08:47.236Z,18.73
2019-01-23T00:11:14.930Z,20.92
2019-01-23T00:13:42.673Z,20.50
2019-01-23T00:16:10.460Z,20.80
2019-01-23T00:18:38.233Z,21.65
2019-01-23T00:21:05.918Z,21.23
2019-01-23T00:23:33.871Z,20.88
2019-01-23T00:26:01.534Z,19.35
2019-01-23T00:28:29.368Z,20.32
2019-01-23T00:30:57.129Z,20.30
2019-01-23T00:33:25.039Z,19.50
2019-01-23T00:35:52.953Z,19.75
2019-01-23T00:38:20.697Z,20.30
2019-01-23T00:40:48.503Z,20.02
2019-01-23T00:43:16.342Z,20.82
2019-01-23T00:45:44.209Z,20.10
2019-01-23T00:48:11.965Z,20.55
2019-01-23T00:50:39.741Z,19.65
2019-01-23T00:53:07.633Z,20.02
2019-01-23T00:55:35.396Z,21.07
2019-01-23T00:58:03.151Z,20.10
2019-01-23T01:00:30.927Z,22.15
2019-01-23T01:02:58.633Z,20.75
2019-01-23T01:05:26.622Z,19.67
2019-01-23T01:07:54.316Z,20.68
2019-01-23T01:10:22.146Z,19.77
2019-01-23T01:12:49.958Z,21.45
2019-01-23T01:15:17.941Z,19.65
2019-01-23T01:17:45.824Z,19.48
2019-01-23T01:20:14.477Z,20.02
2019-01-23T01:22:42.261Z,18.67
2019-01-23T01:25:12.228Z,19.65
2019-01-23T01:27:41.517Z,22.75
2019-01-23T01:30:12.307Z,18.75
2019-01-23T01:32:41.599Z,19.57
2019-01-23T01:35:09.443Z,20.20
2019-01-23T01:37:37.306Z,21.30
2019-01-23T01:40:06.786Z,20.30
2019-01-23T01:42:36.209Z,21.00
2019-01-23T01:45:05.570Z,19.75
2019-01-23T01:47:34.789Z,19.60
2019-01-23T01:50:04.322Z,22.10
2019-01-23T01:52:33.700Z,22.73
2019-01-23T01:55:01.580Z,20.80
2019-01-23T01:57:30.921Z,20.17
2019-01-23T01:59:58.685Z,22.80
2019-01-23T02:02:26.432Z,22.62
2019-01-23T02:04:54.185Z,22.15
2019-01-23T02:07:21.937Z,20.77
2019-01-23T02:09:49.598Z,22.35
2019-01-23T02:12:17.237Z,20.35
2019-01-23T02:14:44.996Z,21.85
2019-01-23T02:17:12.848Z,18.35
2019-01-23T02:19:40.497Z,22.60
2019-01-23T02:22:08.364Z,23.35
2019-01-23T02:24:36.215Z,21.57
2019-01-23T02:27:03.880Z,20.75
2019-01-23T02:29:31.758Z,22.82
2019-01-23T02:32:01.889Z,20.37
2019-01-23T02:34:29.732Z,24.37
2019-01-23T02:36:57.386Z,22.82
2019-01-23T02:39:25.205Z,22.70
2019-01-23T02:41:52.956Z,21.12
2019-01-23T02:44:20.833Z,22.90
2019-01-23T02:46:48.493Z,22.22
2019-01-23T02:49:16.304Z,22.95
2019-01-23T02:51:43.968Z,22.90
2019-01-23T02:54:11.693Z,21.82
2019-01-23T02:56:39.349Z,22.32
2019-01-23T02:59:07.097Z,23.70
2019-01-23T03:01:34.770Z,23.20
2019-01-23T03:04:03.061Z,23.40
2019-01-23T03:06:30.839Z,22.52
2019-01-23T03:08:58.677Z,23.55
2019-01-23T03:11:26.365Z,22.48
2019-01-23T03:13:54.139Z,22.90
2019-01-23T03:16:21.973Z,23.00
2019-01-23T03:18:49.731Z,24.95
2019-01-23T03:21:17.502Z,21.55
2019-01-23T03:23:45.190Z,23.32
2019-01-23T03:26:12.910Z,26.07
2019-01-23T03:28:40.561Z,24.40
2019-01-23T03:31:08.299Z,23.15
2019-01-23T03:33:35.965Z,24.95
2019-01-23T03:36:04.363Z,23.47
2019-01-23T03:38:32.133Z,24.27
2019-01-23T03:40:59.897Z,22.27
2019-01-23T03:43:28.060Z,24.40
2019-01-23T03:45:55.772Z,22.90
2019-01-23T03:48:23.578Z,23.30
2019-01-23T03:50:51.387Z,24.07
2019-01-23T03:53:19.149Z,25.65
2019-01-23T03:55:46.905Z,24.07
2019-01-23T03:58:14.589Z,22.77
2019-01-23T04:00:42.419Z,22.93
2019-01-23T04:03:10.310Z,22.82
2019-01-23T04:05:38.161Z,21.20
2019-01-23T04:08:05.896Z,24.80
2019-01-23T04:10:33.625Z,21.77
2019-01-23T04:13:01.363Z,22.27
2019-01-23T04:15:29.137Z,24.52
2019-01-23T04:17:57.094Z,23.45
2019-01-23T04:20:24.747Z,23.07
2019-01-23T04:22:52.479Z,22.42
2019-01-23T04:25:20.247Z,24.20
2019-01-23T04:27:47.929Z,21.30
2019-01-23T04:30:20.810Z,22.62
2019-01-23T04:32:49.897Z,23.75
2019-01-23T04:35:17.761Z,23.15
2019-01-23T04:37:45.712Z,23.77
2019-01-23T04:40:13.721Z,25.15
2019-01-23T04:42:41.487Z,24.30
2019-01-23T04:45:10.361Z,22.95
2019-01-23T04:47:39.617Z,22.37
2019-01-23T04:50:08.951Z,22.65
2019-01-23T04:53:03.971Z,22.52
2019-01-23T04:55:34.274Z,22.82
2019-01-23T04:58:02.848Z,22.60
2019-01-23T05:00:31.067Z,24.37
2019-01-23T05:02:59.143Z,22.90
2019-01-23T05:05:26.954Z,22.40
2019-01-23T05:07:54.623Z,25.48
2019-01-23T05:10:22.348Z,22.00
2019-01-23T05:12:50.111Z,22.25
2019-01-23T05:15:17.873Z,21.50
2019-01-23T05:17:45.569Z,22.58
2019-01-23T05:20:13.521Z,21.95
2019-01-23T05:22:42.007Z,22.93
2019-01-23T05:25:10.407Z,25.95
2019-01-23T05:27:38.766Z,24.32
2019-01-23T05:30:11.076Z,23.00
2019-01-23T05:32:40.496Z,23.05
2019-01-23T05:35:08.231Z,23.95
2019-01-23T05:37:36.198Z,21.97
2019-01-23T05:40:04.930Z,22.27
2019-01-23T05:42:34.308Z,22.25
2019-01-23T05:45:01.989Z,23.98
2019-01-23T05:47:31.305Z,21.30
2019-01-23T05:49:58.974Z,22.30
2019-01-23T05:52:26.867Z,26.77
2019-01-23T05:54:54.664Z,22.95
2019-01-23T05:57:22.401Z,20.95
2019-01-23T05:59:50.084Z,23.62
2019-01-23T06:02:17.826Z,24.82
2019-01-23T06:04:45.588Z,22.98
2019-01-23T06:07:13.384Z,20.92
2019-01-23T06:09:41.041Z,22.42
2019-01-23T06:12:08.814Z,24.50
2019-01-23T06:14:36.458Z,24.72
2019-01-23T06:17:04.114Z,22.75
2019-01-23T06:19:31.802Z,23.27
2019-01-23T06:21:59.544Z,23.98
2019-01-23T06:24:27.210Z,23.87
2019-01-23T06:26:54.992Z,23.50
2019-01-23T06:29:22.658Z,23.70
2019-01-23T06:31:51.238Z,21.97
2019-01-23T06:34:19.113Z,22.52
2019-01-23T06:36:46.798Z,23.25
2019-01-23T06:39:14.674Z,23.98
2019-01-23T06:41:42.456Z,22.85
2019-01-23T06:44:10.209Z,24.27
2019-01-23T06:46:37.777Z,22.93
2019-01-23T06:49:05.537Z,22.77
2019-01-23T06:51:33.289Z,23.47
2019-01-23T06:54:01.133Z,23.55
2019-01-23T06:56:28.816Z,22.40
2019-01-23T06:58:56.653Z,26.12
2019-01-23T07:01:24.427Z,25.40
2019-01-23T07:03:52.174Z,22.85
2019-01-23T07:06:19.909Z,21.37
2019-01-23T07:08:47.646Z,23.92
2019-01-23T07:11:15.342Z,23.62
2019-01-23T07:13:43.119Z,22.07
2019-01-23T07:16:10.709Z,23.92
2019-01-23T07:18:38.421Z,23.18
2019-01-23T07:21:06.089Z,22.25
2019-01-23T07:23:33.851Z,24.70
2019-01-23T07:26:01.612Z,23.75
2019-01-23T07:28:29.388Z,27.67
2019-01-23T07:30:57.147Z,25.23
2019-01-23T07:33:24.805Z,24.27
2019-01-23T07:35:52.794Z,24.32
2019-01-23T07:38:20.472Z,25.27
2019-01-23T07:40:48.363Z,24.15
2019-01-23T07:43:16.141Z,23.85
2019-01-23T07:45:43.881Z,23.73
2019-01-23T07:48:11.661Z,23.92
2019-01-23T07:50:39.515Z,24.72
2019-01-23T07:53:07.277Z,22.85
2019-01-23T07:55:35.147Z,25.70
2019-01-23T07:58:03.013Z,25.60
2019-01-23T08:00:31.475Z,25.45
2019-01-23T08:02:59.677Z,23.80
2019-01-23T08:05:27.581Z,24.80
2019-01-23T08:07:55.250Z,22.73
2019-01-23T08:10:23.265Z,24.85
2019-01-23T08:12:51.228Z,23.15
2019-01-23T08:15:21.466Z,24.92
2019-01-23T08:17:50.792Z,25.40
2019-01-23T08:20:19.155Z,24.77
2019-01-23T08:22:48.472Z,25.20
2019-01-23T08:25:16.444Z,24.95
2019-01-23T08:27:44.444Z,22.87
2019-01-23T08:30:13.353Z,24.52
2019-01-23T08:32:42.677Z,26.97
2019-01-23T08:35:10.553Z,27.22
2019-01-23T08:37:38.690Z,25.43
2019-01-23T08:40:08.297Z,24.30
2019-01-23T08:42:37.657Z,26.60
2019-01-23T08:45:06.630Z,26.12
2019-01-23T08:47:35.999Z,26.70
2019-01-23T08:50:07.857Z,26.60
2019-01-23T08:52:37.214Z,26.52
2019-01-23T08:55:05.157Z,26.30
2019-01-23T08:57:33.157Z,27.62
2019-01-23T09:00:00.879Z,24.05
2019-01-23T09:02:30.222Z,24.15
2019-01-23T09:04:58.035Z,27.98
2019-01-23T09:07:25.811Z,25.90
2019-01-23T09:09:53.684Z,25.02
2019-01-23T09:12:21.353Z,24.95
2019-01-23T09:14:49.197Z,26.65
2019-01-23T09:17:16.872Z,24.65
2019-01-23T09:19:44.709Z,27.62
2019-01-23T09:22:12.416Z,26.00
2019-01-23T09:24:40.161Z,25.45
2019-01-23T09:27:07.862Z,24.80
2019-01-23T09:29:35.622Z,25.85
2019-01-23T09:32:26.418Z,27.13
2019-01-23T09:35:37.391Z,26.70
2019-01-23T09:38:17.193Z,26.05
2019-01-23T09:41:08.865Z,25.85
2019-01-23T09:44:04.083Z,26.48
2019-01-23T09:46:51.274Z,25.70
2019-01-23T09:49:52.997Z,25.90
2019-01-23T09:52:52.943Z,26.87
2019-01-23T09:55:22.294Z,27.40
2019-01-23T09:57:53.388Z,27.45
2019-01-23T10:00:24.061Z,26.15
2019-01-23T10:02:53.357Z,26.90
2019-01-23T10:05:21.155Z,26.40
2019-01-23T10:07:48.797Z,24.75
2019-01-23T10:10:17.280Z,25.77
2019-01-23T10:12:46.640Z,24.98
2019-01-23T10:15:18.139Z,25.72
2019-01-23T10:17:47.421Z,24.90
2019-01-23T10:20:15.095Z,24.50
2019-01-23T10:22:42.964Z,25.15
2019-01-23T10:25:10.759Z,23.47
2019-01-23T10:27:38.565Z,24.95
2019-01-23T10:30:06.811Z,25.10
2019-01-23T10:32:36.186Z,27.07
2019-01-23T10:35:05.732Z,25.97
2019-01-23T10:37:35.093Z,24.80
2019-01-23T10:40:03.370Z,26.07
2019-01-23T10:42:32.730Z,25.70
2019-01-23T10:45:00.421Z,25.55
2019-01-23T10:47:28.276Z,25.00
2019-01-23T10:49:56.039Z,23.57
2019-01-23T10:52:23.823Z,25.00
2019-01-23T10:54:51.605Z,26.12
2019-01-23T10:57:19.457Z,28.02
2019-01-23T10:59:47.131Z,26.73
2019-01-23T11:02:14.975Z,26.30
2019-01-23T11:04:42.865Z,24.90
2019-01-23T11:07:10.690Z,26.17
2019-01-23T11:09:38.463Z,26.62
2019-01-23T11:12:06.214Z,27.62
2019-01-23T11:14:33.917Z,26.80
2019-01-23T11:17:01.602Z,26.10
2019-01-23T11:19:29.777Z,27.20
2019-01-23T11:21:57.554Z,24.00
2019-01-23T11:24:25.306Z,28.00
2019-01-23T11:26:52.974Z,27.62
2019-01-23T11:29:20.817Z,26.82
2019-01-23T11:31:48.512Z,26.40
2019-01-23T11:34:16.390Z,28.12
2019-01-23T11:36:44.127Z,27.42
2019-01-23T11:39:11.961Z,26.55
2019-01-23T11:41:39.845Z,30.25
2019-01-23T11:44:07.577Z,27.82
2019-01-23T11:46:35.253Z,29.00
2019-01-23T11:49:03.316Z,28.30
2019-01-23T11:51:31.029Z,28.47
2019-01-23T11:53:58.868Z,27.73
2019-01-23T11:56:26.585Z,28.60
2019-01-23T11:58:54.324Z,26.68
2019-01-23T12:01:27.541Z,26.40
2019-01-23T12:03:51.944Z,28.23
2019-01-23T12:06:19.782Z,26.62
2019-01-23T12:08:47.547Z,25.92
2019-01-23T12:11:15.402Z,29.07
2019-01-23T12:13:43.183Z,27.85
2019-01-23T12:16:10.949Z,27.05
2019-01-23T12:18:38.721Z,29.23
2019-01-23T12:21:06.492Z,26.75
2019-01-23T12:23:34.165Z,29.23
2019-01-23T12:26:02.052Z,26.35
2019-01-23T12:28:29.814Z,27.20
2019-01-23T12:30:57.561Z,26.05
2019-01-23T12:33:25.252Z,27.15
2019-01-23T12:35:53.111Z,26.50
2019-01-23T12:38:20.872Z,25.95
2019-01-23T12:40:48.682Z,28.75
2019-01-23T12:43:16.504Z,27.20
2019-01-23T12:45:44.190Z,26.35
2019-01-23T12:48:11.962Z,27.40
2019-01-23T12:50:39.754Z,25.30
2019-01-23T12:53:07.468Z,27.82
2019-01-23T12:55:35.402Z,27.30
2019-01-23T12:58:03.293Z,26.87
2019-01-23T13:00:31.112Z,25.27
2019-01-23T13:02:59.602Z,26.20
2019-01-23T13:05:27.684Z,26.25
2019-01-23T13:07:55.795Z,25.15
2019-01-23T13:10:24.088Z,29.12
2019-01-23T13:12:52.542Z,27.02
2019-01-23T13:15:22.928Z,25.52
2019-01-23T13:17:52.434Z,25.90
2019-01-23T13:20:21.522Z,25.08
2019-01-23T13:22:50.924Z,24.90
2019-01-23T13:25:21.015Z,25.75
2019-01-23T13:27:50.842Z,26.62
2019-01-23T13:30:20.927Z,27.50
2019-01-23T13:32:50.250Z,26.62
2019-01-23T13:35:20.878Z,24.98
2019-01-23T13:37:50.195Z,25.97
2019-01-23T13:40:20.931Z,25.17
2019-01-23T13:42:50.244Z,26.60
2019-01-23T13:45:18.109Z,26.35
2019-01-23T13:47:46.055Z,25.95
2019-01-23T13:50:14.158Z,26.05
2019-01-23T13:52:41.985Z,26.17
2019-01-23T13:55:11.074Z,24.63
2019-01-23T13:57:40.368Z,25.32
2019-01-23T14:00:12.953Z,25.75
2019-01-23T14:02:42.281Z,24.43
2019-01-23T14:05:10.540Z,25.32
2019-01-23T14:07:38.513Z,25.17
2019-01-23T14:10:09.253Z,26.68
2019-01-23T14:12:38.553Z,26.33
2019-01-23T14:15:08.439Z,25.17
2019-01-23T14:17:37.715Z,23.85
2019-01-23T14:20:07.735Z,24.30
2019-01-23T14:22:37.138Z,25.25
2019-01-23T14:25:05.309Z,22.35
2019-01-23T14:27:34.752Z,23.80
2019-01-23T14:30:02.549Z,24.65
2019-01-23T14:32:31.901Z,23.10
2019-01-23T14:34:59.659Z,23.55
2019-01-23T14:37:27.791Z,24.02
2019-01-23T14:39:57.100Z,24.67
2019-01-23T14:42:25.292Z,24.05
2019-01-23T14:44:53.067Z,24.37
2019-01-23T14:47:20.830Z,21.93
2019-01-23T14:49:48.583Z,23.62
2019-01-23T14:52:16.349Z,24.37
2019-01-23T14:54:44.088Z,23.50
2019-01-23T14:57:11.945Z,23.60
2019-01-23T14:59:39.730Z,21.80
2019-01-23T15:02:10.267Z,22.20
2019-01-23T15:04:37.205Z,24.95
2019-01-23T15:07:05.057Z,23.57
2019-01-23T15:09:32.787Z,21.00
2019-01-23T15:12:00.615Z,21.65
2019-01-23T15:14:28.314Z,24.75
2019-01-23T15:16:56.116Z,19.35
2019-01-23T15:19:23.868Z,20.62
2019-01-23T15:21:51.555Z,20.65
2019-01-23T15:24:19.394Z,20.43
2019-01-23T15:26:47.204Z,24.70
2019-01-23T15:29:15.019Z,23.73
2019-01-23T15:31:42.803Z,21.02
2019-01-23T15:34:10.578Z,21.57
2019-01-23T15:36:38.275Z,21.10
2019-01-23T15:39:07.424Z,20.95
2019-01-23T15:41:35.162Z,20.70
2019-01-23T15:44:03.420Z,22.17
2019-01-23T15:46:31.365Z,20.57
2019-01-23T15:48:59.219Z,24.07
2019-01-23T15:51:26.955Z,22.98
2019-01-23T15:53:54.862Z,22.00
2019-01-23T15:56:22.571Z,24.90
2019-01-23T15:58:50.323Z,21.35
2019-01-23T16:01:18.185Z,24.90
2019-01-23T16:03:46.015Z,23.92
2019-01-23T16:06:13.977Z,25.55
2019-01-23T16:08:41.711Z,24.25
2019-01-23T16:11:09.601Z,24.98
2019-01-23T16:13:42.161Z,25.55
2019-01-23T16:16:07.110Z,23.10
2019-01-23T16:18:34.930Z,27.05
2019-01-23T16:21:02.938Z,26.00
2019-01-23T16:23:30.634Z,27.65
2019-01-23T16:25:58.523Z,23.52
2019-01-23T16:28:26.374Z,24.43
2019-01-23T16:30:54.271Z,25.12
2019-01-23T16:33:21.949Z,27.20
2019-01-23T16:35:49.727Z,27.22
2019-01-23T16:38:17.416Z,27.62
2019-01-23T16:40:45.355Z,24.10
2019-01-23T16:43:13.111Z,25.25
2019-01-23T16:45:40.907Z,26.33
2019-01-23T16:48:08.735Z,28.70
2019-01-23T16:50:36.485Z,27.42
2019-01-23T16:53:04.515Z,26.45
2019-01-23T16:55:32.337Z,26.50
2019-01-23T16:58:00.400Z,26.05
2019-01-23T17:00:28.316Z,27.60
2019-01-23T17:02:56.733Z,25.20
2019-01-23T17:05:28.034Z,26.65
2019-01-23T17:08:00.039Z,27.75
2019-01-23T17:10:29.498Z,26.30
2019-01-23T17:12:57.613Z,27.85
2019-01-23T17:15:25.633Z,28.95
2019-01-23T17:17:53.565Z,26.57
2019-01-23T17:20:25.672Z,25.85
2019-01-23T17:22:55.165Z,28.30
2019-01-23T17:25:22.869Z,26.27
2019-01-23T17:27:50.854Z,27.17
2019-01-23T17:30:18.687Z,26.37
2019-01-23T17:32:46.790Z,27.85
2019-01-23T17:35:16.114Z,28.52
2019-01-23T17:37:45.754Z,29.95
2019-01-23T17:40:16.055Z,30.65
2019-01-23T17:42:45.941Z,30.25
2019-01-23T17:45:19.319Z,28.73
2019-01-23T17:47:48.651Z,28.87
2019-01-23T17:50:18.006Z,29.45
2019-01-23T17:52:47.341Z,28.50
2019-01-23T17:55:23.808Z,29.65
2019-01-23T17:57:53.235Z,31.20
2019-01-23T18:00:25.086Z,28.85
2019-01-23T18:02:54.790Z,31.52
2019-01-23T18:05:22.842Z,29.60
2019-01-23T18:07:50.814Z,29.75
2019-01-23T18:10:18.868Z,29.98
2019-01-23T18:12:47.167Z,26.95
2019-01-23T18:15:17.280Z,30.05
2019-01-23T18:17:46.725Z,28.90
2019-01-23T18:20:20.001Z,31.30
2019-01-23T18:22:49.442Z,30.15
2019-01-23T18:25:17.222Z,29.50
2019-01-23T18:27:45.339Z,28.27
2019-01-23T18:30:17.229Z,30.52
2019-01-23T18:32:47.087Z,27.10
2019-01-23T18:36:01.872Z,29.98
2019-01-23T18:39:25.136Z,27.42
2019-01-23T18:42:26.611Z,28.57
2019-01-23T18:45:35.124Z,29.63
2019-01-23T18:48:26.142Z,28.75
2019-01-23T18:51:29.322Z,25.95
2019-01-23T18:53:57.511Z,27.58
2019-01-23T18:56:25.298Z,28.23
2019-01-23T18:58:53.152Z,26.95
2019-01-23T19:01:21.120Z,26.73
2019-01-23T19:03:48.946Z,27.55
2019-01-23T19:06:16.842Z,29.40
2019-01-23T19:08:44.779Z,27.13
2019-01-23T19:11:12.625Z,27.45
2019-01-23T19:13:44.536Z,27.95
2019-01-23T19:16:12.676Z,28.73
2019-01-23T19:18:40.878Z,27.52
2019-01-23T19:21:08.760Z,29.63
2019-01-23T19:23:36.518Z,29.00
2019-01-23T19:26:04.274Z,26.70
2019-01-23T19:28:32.224Z,28.30
2019-01-23T19:31:00.052Z,26.77
2019-01-23T19:33:28.417Z,28.55
2019-01-23T19:35:56.307Z,27.85
2019-01-23T19:38:24.228Z,29.05
2019-01-23T19:40:52.270Z,26.35
2019-01-23T19:43:20.257Z,28.57
2019-01-23T19:45:48.081Z,26.48
2019-01-23T19:48:16.057Z,28.47
2019-01-23T19:50:43.971Z,30.27
2019-01-23T19:53:11.864Z,25.35
2019-01-23T19:55:39.651Z,26.87
2019-01-23T19:58:07.746Z,27.13
2019-01-23T20:00:35.925Z,29.60
2019-01-23T20:03:04.467Z,26.73
2019-01-23T20:05:34.515Z,27.25
2019-01-23T20:08:03.028Z,27.02
2019-01-23T20:10:31.157Z,29.60
2019-01-23T20:12:59.019Z,28.80
2019-01-23T20:15:26.923Z,24.95
2019-01-23T20:18:00.745Z,25.25
2019-01-23T20:20:28.762Z,26.30
2019-01-23T20:22:56.505Z,26.02
2019-01-23T20:25:24.765Z,26.68
2019-01-23T20:27:53.070Z,26.85
2019-01-23T20:30:27.223Z,32.25
2019-01-23T20:32:56.547Z,30.27
2019-01-23T20:35:24.334Z,30.30
2019-01-23T20:37:52.161Z,33.00
2019-01-23T20:40:20.023Z,33.85
2019-01-23T20:42:48.628Z,33.25
2019-01-23T20:45:16.399Z,31.52
2019-01-23T20:47:44.399Z,33.50
2019-01-23T20:50:18.314Z,32.55
2019-01-23T20:52:47.671Z,31.95
2019-01-23T20:55:15.538Z,30.30
2019-01-23T20:57:43.529Z,30.25
2019-01-23T21:00:17.295Z,33.53
2019-01-23T21:02:46.687Z,33.50
2019-01-23T21:05:14.668Z,30.25
2019-01-23T21:07:42.557Z,30.68
2019-01-23T21:10:11.595Z,32.60
2019-01-23T21:12:40.933Z,34.35
2019-01-23T21:15:14.271Z,32.95
2019-01-23T21:17:43.767Z,32.90
2019-01-23T21:20:11.770Z,31.97
2019-01-23T21:22:39.754Z,32.28
2019-01-23T21:25:07.636Z,31.00
2019-01-23T21:27:36.454Z,33.35
2019-01-23T21:30:07.062Z,32.13
2019-01-23T21:32:36.485Z,33.45
2019-01-23T21:35:04.586Z,32.25
2019-01-23T21:37:33.973Z,31.52
2019-01-23T21:40:01.661Z,31.95
2019-01-23T21:42:31.073Z,31.45
2019-01-23T21:44:58.849Z,33.95
2019-01-23T21:47:26.805Z,33.95
2019-01-23T21:49:54.703Z,32.10
2019-01-23T21:52:22.514Z,32.75
2019-01-23T21:54:50.502Z,32.00
2019-01-23T21:57:18.241Z,32.40
2019-01-23T21:59:46.034Z,33.63
2019-01-23T22:02:13.836Z,29.85
2019-01-23T22:04:41.660Z,29.85
2019-01-23T22:07:09.429Z,31.40
2019-01-23T22:09:37.350Z,33.10
2019-01-23T22:12:05.079Z,33.00
2019-01-23T22:14:32.943Z,32.63
2019-01-23T22:17:00.758Z,33.95
2019-01-23T22:19:28.647Z,33.18
2019-01-23T22:21:56.574Z,33.02
2019-01-23T22:24:24.323Z,32.48
2019-01-23T22:26:52.041Z,33.65
2019-01-23T22:29:19.897Z,34.05
2019-01-23T22:31:47.610Z,34.98
2019-01-23T22:34:15.507Z,32.00
2019-01-23T22:36:43.215Z,33.58
2019-01-23T22:39:11.171Z,33.10
2019-01-23T22:41:38.937Z,30.12
2019-01-23T22:44:06.667Z,33.88
2019-01-23T22:46:34.462Z,36.05
2019-01-23T22:49:02.169Z,35.68
2019-01-23T22:51:30.253Z,30.08
2019-01-23T22:53:57.950Z,33.02
2019-01-23T22:56:25.833Z,31.70
2019-01-23T22:58:53.525Z,35.70
2019-01-23T23:01:29.681Z,37.80
2019-01-23T23:04:03.142Z,32.13
2019-01-23T23:06:28.116Z,36.28
2019-01-23T23:08:55.815Z,29.60
2019-01-23T23:11:23.791Z,35.63
2019-01-23T23:13:51.606Z,34.88
2019-01-23T23:16:19.365Z,33.73
2019-01-23T23:18:47.054Z,34.73
2019-01-23T23:21:14.740Z,33.95
2019-01-23T23:23:42.545Z,38.90
2019-01-23T23:26:10.295Z,33.58
2019-01-23T23:28:38.083Z,32.20
2019-01-23T23:31:05.893Z,34.73
2019-01-23T23:33:33.722Z,35.28
2019-01-23T23:36:01.439Z,35.13
2019-01-23T23:38:29.924Z,33.35
2019-01-23T23:40:57.690Z,36.60
2019-01-23T23:43:25.442Z,34.67
2019-01-23T23:45:53.244Z,31.90
2019-01-23T23:48:21.004Z,32.50
2019-01-23T23:50:48.806Z,34.67
2019-01-23T23:53:16.702Z,33.00
2019-01-23T23:55:44.413Z,34.45
2019-01-23T23:58:12.142Z,34.65
